Terminal Aerodrome Forecast
Issued by NWS

Home | Current Version | Previous Version | Text Only | Print | Product List | Glossary On
Versions: 1 2 3 4 5 6 7 8 9 10 11 12 13 14 15 16 17 18
354
FTUS46 KLOX 191744
TAFPRB
TAF
KPRB 191744Z 1918/2018 29013KT P6SM SKC
     FM192100 30015G23KT P6SM SKC
     FM200300 30008KT P6SM SKC
     FM201000 VRB03KT 1/2SM FG VV001=

USA.gov is the U.S. government's official web portal to all federal, state and local government web resources and services.